Time;durP1;ratioP1;P1;durP2;ratioP2;P2;SDS_P1;SDS_P2;PMS_P1;PMS_P2;Temp;Humidity;BMP_temperature;BMP_pressure;BME280_temperature;BME280_humidity;BME280_pressure;Samples;Min_cycle;Max_cycle;Signal;HPM_P1;HPM_P2
2023/12/26 00:00:27;;;;;;;4.30;1.70;;;11.30;99.90;;;;;;6349188;22;19995;-92
2023/12/26 00:06:33;;;;;;;3.42;0.95;;;11.10;99.90;;;;;;6340540;22;20022;-91
2023/12/26 00:12:27;;;;;;;5.75;1.48;;;10.50;99.90;;;;;;6321876;22;20030;-93
2023/12/26 00:15:17;;;;;;;6.43;1.65;;;11.20;99.90;;;;;;6309066;22;20689;-92
2023/12/26 00:18:09;;;;;;;6.13;1.42;;;11.10;99.90;;;;;;6309352;22;20029;-93
2023/12/26 00:20:39;;;;;;;8.52;1.45;;;11.10;99.90;;;;;;6310706;22;20030;-92
2023/12/26 00:23:09;;;;;;;;;;;11.10;99.90;;;;;;6312986;22;20000;-93
2023/12/26 00:25:45;;;;;;;6.13;1.73;;;11.10;99.90;;;;;;6308516;22;19905;-94
2023/12/26 00:28:25;;;;;;;5.28;1.90;;;11.20;99.90;;;;;;6308933;22;20005;-92
2023/12/26 00:30:51;;;;;;;5.27;1.67;;;10.80;99.90;;;;;;6306088;22;20018;-92
2023/12/26 00:33:19;;;;;;;3.90;1.50;;;10.30;99.90;;;;;;6308525;22;20015;-92
2023/12/26 00:35:45;;;;;;;5.72;1.40;;;11.20;99.90;;;;;;6308799;22;20015;-91
2023/12/26 00:38:23;;;;;;;7.30;1.70;;;11.10;99.90;;;;;;6308270;22;19999;-92
2023/12/26 00:40:48;;;;;;;9.45;2.47;;;11.20;99.90;;;;;;6309823;22;20003;-92
2023/12/26 00:43:15;;;;;;;4.80;1.83;;;11.10;99.90;;;;;;6307884;22;19996;-92
2023/12/26 00:45:41;;;;;;;5.28;1.35;;;9.90;99.90;;;;;;6308694;22;19999;-93
2023/12/26 00:48:08;;;;;;;4.15;1.52;;;11.20;99.90;;;;;;6308849;22;20003;-91
2023/12/26 00:50:45;;;;;;;8.80;1.50;;;11.10;99.90;;;;;;6308509;22;19995;-92
2023/12/26 00:53:22;;;;;;;8.00;1.85;;;10.80;99.90;;;;;;6308946;22;20003;-92
2023/12/26 00:55:48;;;;;;;6.70;1.40;;;11.20;99.90;;;;;;6308792;22;20011;-92
2023/12/26 00:58:21;;;;;;;5.32;1.38;;;11.20;99.90;;;;;;6309777;22;20004;-92
2023/12/26 01:01:03;;;;;;;11.45;1.25;;;11.10;99.90;;;;;;6308031;22;20003;-91
2023/12/26 01:03:28;;;;;;;5.43;1.50;;;11.20;99.90;;;;;;6307865;22;20351;-92
2023/12/26 01:05:54;;;;;;;4.32;1.10;;;11.20;99.90;;;;;;6308427;22;20066;-92
2023/12/26 01:08:20;;;;;;;4.95;1.83;;;11.30;99.90;;;;;;6308474;22;20443;-93
2023/12/26 01:10:45;;;;;;;6.97;1.42;;;11.20;99.90;;;;;;6308028;22;20026;-92
2023/12/26 01:13:11;;;;;;;6.03;1.45;;;11.30;99.90;;;;;;6332765;22;20021;-93
2023/12/26 01:15:38;;;;;;;6.13;1.27;;;11.30;99.90;;;;;;6339456;22;20427;-92
2023/12/26 01:18:09;;;;;;;5.40;2.25;;;11.30;99.90;;;;;;6338891;22;19999;-92
2023/12/26 01:20:35;;;;;;;6.40;1.60;;;11.30;99.90;;;;;;6340347;22;20437;-90
2023/12/26 01:23:00;;;;;;;10.95;1.70;;;11.30;99.90;;;;;;6361856;22;20003;-91
2023/12/26 01:25:29;;;;;;;11.63;1.98;;;11.30;99.90;;;;;;6345666;22;20077;-93
2023/12/26 01:28:01;;;;;;;10.70;2.60;;;11.30;99.90;;;;;;6339352;22;20003;-91
2023/12/26 01:30:26;;;;;;;6.65;2.00;;;11.30;99.90;;;;;;6339588;22;20003;-91
2023/12/26 01:32:52;;;;;;;11.20;1.90;;;11.20;99.90;;;;;;6349019;22;20594;-91
2023/12/26 01:35:22;;;;;;;15.73;3.58;;;11.30;99.90;;;;;;6339571;22;20046;-91
2023/12/26 01:37:49;;;;;;;5.95;1.65;;;11.40;99.90;;;;;;6276851;22;20019;-91
2023/12/26 01:40:34;;;;;;;9.25;2.25;;;11.40;99.90;;;;;;6277362;22;20075;-91
2023/12/26 01:43:09;;;;;;;7.05;2.08;;;11.30;99.90;;;;;;6276850;22;20458;-92
2023/12/26 01:45:59;;;;;;;10.65;2.53;;;11.40;99.90;;;;;;6284002;22;20083;-91
2023/12/26 01:51:48;;;;;;;11.45;2.00;;;11.40;99.90;;;;;;6339466;22;20030;-93
2023/12/26 01:54:57;;;;;;;12.98;3.20;;;11.50;99.90;;;;;;6340982;22;20002;-92
2023/12/26 02:03:59;;;;;;;8.90;1.77;;;10.70;99.90;;;;;;6340501;22;20041;-93
2023/12/26 02:12:29;;;;;;;10.60;2.42;;;11.00;99.90;;;;;;6343155;22;20041;-92
2023/12/26 02:15:32;;;;;;;6.10;1.48;;;11.50;99.90;;;;;;6342252;22;20022;-93
2023/12/26 02:18:04;;;;;;;9.40;1.98;;;11.50;99.90;;;;;;6342929;22;20005;-93
2023/12/26 02:20:30;;;;;;;6.18;1.52;;;11.50;99.90;;;;;;6347368;22;20025;-92
2023/12/26 02:23:05;;;;;;;12.93;2.97;;;11.50;99.90;;;;;;6354626;22;20019;-92
2023/12/26 02:25:33;;;;;;;9.48;1.98;;;11.50;99.90;;;;;;6338243;22;20052;-92
2023/12/26 02:28:07;;;;;;;13.60;2.45;;;11.50;99.90;;;;;;6341363;22;20280;-93
2023/12/26 02:30:35;;;;;;;9.93;1.90;;;11.40;99.90;;;;;;6338861;22;20132;-93
2023/12/26 02:33:23;;;;;;;10.27;1.38;;;11.40;99.90;;;;;;6341245;22;20018;-92
2023/12/26 02:35:55;;;;;;;8.40;2.20;;;11.10;99.90;;;;;;6341750;22;20010;-92
2023/12/26 02:38:23;;;;;;;9.73;1.67;;;10.50;99.90;;;;;;6346877;22;20013;-92
2023/12/26 02:40:52;;;;;;;8.00;1.88;;;11.30;99.90;;;;;;6350316;22;20003;-92
2023/12/26 02:43:22;;;;;;;7.57;1.98;;;11.30;99.90;;;;;;6356185;22;19990;-92
2023/12/26 02:46:00;;;;;;;9.52;1.75;;;11.30;99.90;;;;;;6356248;22;20021;-92
2023/12/26 02:48:32;;;;;;;5.97;1.35;;;11.40;99.90;;;;;;6340635;22;19998;-92
2023/12/26 02:51:31;;;;;;;8.77;2.10;;;11.30;99.90;;;;;;6340893;22;20002;-91
2023/12/26 02:54:05;;;;;;;7.55;1.52;;;10.50;99.90;;;;;;6340513;22;20007;-92
2023/12/26 02:59:54;;;;;;;7.28;1.33;;;11.20;99.90;;;;;;6340252;22;20053;-91
2023/12/26 03:02:40;;;;;;;9.40;1.80;;;11.20;99.90;;;;;;6341096;22;20010;-91
2023/12/26 03:05:08;;;;;;;6.82;1.85;;;11.20;99.90;;;;;;6341229;22;20002;-92
2023/12/26 03:07:53;;;;;;;8.82;1.52;;;11.10;99.90;;;;;;6342225;22;20003;-92
2023/12/26 03:10:33;;;;;;;7.32;1.40;;;11.20;99.90;;;;;;6343823;22;20006;-92
2023/12/26 03:13:01;;;;;;;10.63;1.35;;;11.10;99.90;;;;;;6345204;22;20443;-93
2023/12/26 03:15:40;;;;;;;6.43;1.30;;;11.10;99.90;;;;;;6340977;22;20068;-92
2023/12/26 03:18:13;;;;;;;8.95;2.10;;;11.10;99.90;;;;;;6340893;22;19999;-91
2023/12/26 03:20:38;;;;;;;7.65;1.70;;;11.20;99.90;;;;;;6340895;22;20011;-92
2023/12/26 03:23:05;;;;;;;8.95;1.75;;;11.10;99.90;;;;;;6356838;22;20009;-91
2023/12/26 03:25:49;;;;;;;11.75;1.77;;;11.10;99.90;;;;;;6350551;22;20018;-91
2023/12/26 03:28:20;;;;;;;7.05;1.80;;;11.10;99.90;;;;;;6341092;22;19995;-91
2023/12/26 03:30:47;;;;;;;8.05;1.90;;;11.10;99.90;;;;;;6339912;22;20002;-92
2023/12/26 03:33:17;;;;;;;5.13;1.30;;;11.10;99.90;;;;;;6340378;22;19999;-91
2023/12/26 03:35:47;;;;;;;7.10;1.50;;;11.10;99.90;;;;;;6340883;22;20449;-93
2023/12/26 03:38:24;;;;;;;11.13;1.30;;;11.00;99.90;;;;;;6340988;22;19999;-93
2023/12/26 03:41:00;;;;;;;7.35;2.33;;;11.00;99.90;;;;;;6340839;22;20003;-92
2023/12/26 03:43:31;;;;;;;11.23;1.88;;;10.90;99.90;;;;;;6339894;22;20030;-92
2023/12/26 03:46:02;;;;;;;8.95;1.88;;;10.90;99.90;;;;;;6339549;22;20433;-92
2023/12/26 03:48:54;;;;;;;7.53;1.75;;;10.90;99.90;;;;;;6340144;22;20066;-93
2023/12/26 03:51:22;;;;;;;10.85;1.73;;;10.90;99.90;;;;;;6339577;22;20466;-92
2023/12/26 03:53:49;;;;;;;5.20;2.13;;;10.90;99.90;;;;;;6339852;22;20003;-92
2023/12/26 03:56:22;;;;;;;6.22;1.30;;;10.70;99.90;;;;;;6340425;22;20313;-93
2023/12/26 03:58:49;;;;;;;4.18;1.48;;;10.70;99.90;;;;;;6339949;22;20438;-92
2023/12/26 04:01:14;;;;;;;10.30;2.10;;;10.70;99.90;;;;;;6340455;22;20006;-93
2023/12/26 04:03:40;;;;;;;13.48;2.58;;;10.70;99.90;;;;;;6347642;22;20011;-89
2023/12/26 04:06:07;;;;;;;8.73;1.90;;;10.60;99.90;;;;;;6358616;22;20062;-91
2023/12/26 04:08:38;;;;;;;4.65;1.27;;;10.60;99.90;;;;;;6342135;22;20003;-93
2023/12/26 04:11:10;;;;;;;;;;;10.60;99.90;;;;;;6340560;22;20419;-92
2023/12/26 04:13:38;;;;;;;8.23;1.80;;;10.40;99.90;;;;;;6339767;22;19898;-92
2023/12/26 04:16:18;;;;;;;6.18;1.55;;;10.60;99.90;;;;;;6340494;22;20346;-92
2023/12/26 04:18:55;;;;;;;4.50;1.20;;;10.60;99.90;;;;;;6340135;22;20023;-92
2023/12/26 04:21:25;;;;;;;10.45;1.92;;;10.50;99.90;;;;;;6339837;22;20086;-93
2023/12/26 04:24:10;;;;;;;6.18;1.15;;;10.50;99.90;;;;;;6339656;22;19999;-92
2023/12/26 04:26:40;;;;;;;10.23;1.55;;;10.50;99.90;;;;;;6340029;22;20078;-93
2023/12/26 04:29:06;;;;;;;9.32;1.52;;;10.40;99.90;;;;;;6341036;22;20051;-91
2023/12/26 04:31:55;;;;;;;7.13;1.40;;;10.40;99.90;;;;;;6339910;22;20074;-92
2023/12/26 04:34:21;;;;;;;10.13;1.73;;;10.40;99.90;;;;;;6338355;22;20014;-93
2023/12/26 04:36:53;;;;;;;10.43;2.10;;;10.40;99.90;;;;;;6346877;22;20422;-92
2023/12/26 04:39:19;;;;;;;7.00;1.85;;;10.30;99.90;;;;;;6344532;22;20029;-91
2023/12/26 04:41:54;;;;;;;6.20;1.23;;;10.20;99.90;;;;;;6339532;22;20427;-92
2023/12/26 04:44:20;;;;;;;7.07;2.20;;;10.20;99.90;;;;;;6339877;22;20031;-92
2023/12/26 04:47:16;;;;;;;13.13;2.05;;;10.10;99.90;;;;;;6340182;22;20002;-92
2023/12/26 04:49:44;;;;;;;11.93;1.52;;;10.10;99.90;;;;;;6339926;22;20022;-92
2023/12/26 04:52:20;;;;;;;6.90;2.28;;;9.20;99.90;;;;;;6340970;22;19999;-92
2023/12/26 04:55:00;;;;;;;13.45;1.95;;;10.00;99.90;;;;;;6343063;22;20097;-91
2023/12/26 04:57:31;;;;;;;8.40;1.80;;;10.10;99.90;;;;;;6343352;22;20014;-93
2023/12/26 05:00:01;;;;;;;11.43;1.83;;;10.10;99.90;;;;;;6339471;22;20023;-92
2023/12/26 05:02:28;;;;;;;5.77;1.53;;;10.00;99.90;;;;;;6339609;22;20132;-92
2023/12/26 05:04:54;;;;;;;14.02;1.85;;;10.00;99.90;;;;;;6339846;22;20006;-92
2023/12/26 05:07:23;;;;;;;10.18;1.58;;;10.60;99.90;;;;;;6340166;22;20003;-92
2023/12/26 05:09:52;;;;;;;11.63;2.53;;;10.00;99.90;;;;;;6339984;22;20007;-92
2023/12/26 05:12:22;;;;;;;7.70;1.40;;;9.80;99.90;;;;;;6340381;22;19995;-93
2023/12/26 05:14:51;;;;;;;6.03;2.05;;;9.80;99.90;;;;;;6354046;22;20015;-91
2023/12/26 05:20:43;;;;;;;11.57;2.03;;;9.90;99.90;;;;;;6340395;22;20006;-91
2023/12/26 05:23:16;;;;;;;9.20;1.48;;;9.80;99.90;;;;;;6340839;22;20010;-92
2023/12/26 05:25:44;;;;;;;12.35;1.85;;;9.80;99.90;;;;;;6356247;22;19994;-92
2023/12/26 05:28:23;;;;;;;7.30;1.55;;;9.70;99.90;;;;;;6350732;22;19999;-91
2023/12/26 05:31:00;;;;;;;7.78;2.05;;;9.70;99.90;;;;;;6340399;22;19999;-93
2023/12/26 05:33:28;;;;;;;9.35;1.77;;;9.70;99.90;;;;;;6339910;22;19999;-93
2023/12/26 05:36:15;;;;;;;8.00;2.10;;;9.70;99.90;;;;;;6339642;22;20323;-92
2023/12/26 05:38:44;;;;;;;24.83;2.50;;;9.50;99.90;;;;;;6339550;22;20003;-93
2023/12/26 05:44:43;;;;;;;12.38;2.08;;;9.70;99.90;;;;;;6343167;22;20010;-94
2023/12/26 05:47:23;;;;;;;6.15;1.58;;;9.60;99.90;;;;;;6345724;22;20024;-92
2023/12/26 05:49:50;;;;;;;15.88;2.22;;;9.70;99.90;;;;;;6344752;22;20003;-92
2023/12/26 05:52:21;;;;;;;13.50;1.98;;;9.60;99.90;;;;;;6341266;22;20011;-91
2023/12/26 05:54:47;;;;;;;8.40;2.47;;;9.60;99.90;;;;;;6339680;22;20019;-91
2023/12/26 05:57:20;;;;;;;12.95;2.95;;;9.60;99.90;;;;;;6339373;22;19999;-93
2023/12/26 05:59:46;;;;;;;8.65;1.92;;;9.60;99.90;;;;;;6339672;22;20014;-92
2023/12/26 06:02:14;;;;;;;7.20;1.58;;;9.50;99.90;;;;;;6347176;22;20034;-92
2023/12/26 06:04:39;;;;;;;7.30;1.75;;;9.60;99.90;;;;;;6339658;22;20356;-92
2023/12/26 06:07:07;;;;;;;17.13;2.40;;;9.60;99.90;;;;;;6338777;22;20013;-90
2023/12/26 06:09:34;;;;;;;11.45;1.52;;;9.60;99.90;;;;;;6337931;22;20019;-92
2023/12/26 06:12:05;;;;;;;10.90;1.40;;;9.60;99.90;;;;;;6338173;22;20705;-91
2023/12/26 06:14:32;;;;;;;15.57;2.20;;;9.50;99.90;;;;;;6338306;22;20439;-92
2023/12/26 06:17:08;;;;;;;13.88;1.98;;;9.50;99.90;;;;;;6337825;22;19999;-90
2023/12/26 06:19:44;;;;;;;9.63;1.67;;;9.50;99.90;;;;;;6337753;22;20007;-91
2023/12/26 06:22:12;;;;;;;9.02;1.92;;;9.50;99.90;;;;;;6338127;22;20106;-91
2023/12/26 06:24:42;;;;;;;4.75;1.73;;;9.50;99.90;;;;;;6338360;22;20021;-92
2023/12/26 06:27:18;;;;;;;7.47;1.63;;;9.50;99.90;;;;;;6337431;22;20007;-93
2023/12/26 06:29:43;;;;;;;16.33;2.67;;;9.60;99.90;;;;;;6338107;22;20082;-92
2023/12/26 06:32:10;;;;;;;9.98;2.03;;;9.50;99.90;;;;;;6339550;22;20025;-93
2023/12/26 06:34:38;;;;;;;9.10;1.98;;;9.50;99.90;;;;;;6339273;22;20019;-91
2023/12/26 06:37:11;;;;;;;9.43;2.30;;;9.10;99.90;;;;;;6341814;22;20504;-93
2023/12/26 06:39:38;;;;;;;13.68;2.35;;;9.60;99.90;;;;;;6349842;22;20006;-92
2023/12/26 06:42:12;;;;;;;12.00;2.42;;;9.60;99.90;;;;;;6343026;22;20029;-92
2023/12/26 06:44:49;;;;;;;12.00;2.38;;;9.60;99.90;;;;;;6349370;22;19995;-91
2023/12/26 06:47:17;;;;;;;13.75;2.55;;;9.60;99.90;;;;;;6358008;22;20021;-91
2023/12/26 06:49:53;;;;;;;11.15;1.98;;;9.60;99.90;;;;;;6345278;22;20002;-91
2023/12/26 06:52:41;;;;;;;12.27;1.67;;;9.60;99.90;;;;;;6340475;22;19998;-91
2023/12/26 06:55:14;;;;;;;14.30;2.55;;;9.50;99.90;;;;;;6339836;22;20089;-92
2023/12/26 06:57:40;;;;;;;12.20;1.55;;;9.50;99.90;;;;;;6340169;22;20327;-89
2023/12/26 07:00:08;;;;;;;13.60;2.25;;;9.50;99.90;;;;;;6340441;22;20023;-91
2023/12/26 07:02:44;;;;;;;8.23;1.83;;;9.60;99.90;;;;;;6339003;22;20099;-91
2023/12/26 07:05:11;;;;;;;12.00;2.15;;;9.60;99.90;;;;;;6338837;22;20013;-91
2023/12/26 07:07:37;;;;;;;20.25;2.90;;;9.50;99.90;;;;;;6354330;22;19999;-90
2023/12/26 07:10:15;;;;;;;16.35;3.45;;;9.50;99.90;;;;;;6341856;22;20010;-90
2023/12/26 07:12:40;;;;;;;12.88;2.13;;;9.50;99.90;;;;;;6340465;22;20006;-90
2023/12/26 07:15:11;;;;;;;10.90;2.17;;;9.50;99.90;;;;;;6340125;22;20010;-91
2023/12/26 07:17:38;;;;;;;;;;;9.50;99.90;;;;;;6340293;22;20410;-91
2023/12/26 07:20:19;;;;;;;8.55;2.38;;;9.50;99.90;;;;;;6340146;22;19949;-90
2023/12/26 07:22:52;;;;;;;9.10;1.83;;;9.50;99.90;;;;;;6339617;22;20026;-90
2023/12/26 07:25:28;;;;;;;10.48;1.80;;;9.50;99.90;;;;;;6339907;22;20069;-90
2023/12/26 07:28:01;;;;;;;9.07;1.75;;;9.50;99.90;;;;;;6340078;22;20006;-90
2023/12/26 07:30:31;;;;;;;11.52;2.63;;;9.60;99.90;;;;;;6339655;22;19995;-91
2023/12/26 07:33:03;;;;;;;10.15;1.73;;;9.60;99.90;;;;;;6339360;22;20002;-92
2023/12/26 07:35:37;;;;;;;10.32;1.90;;;9.70;99.90;;;;;;6340003;22;20015;-90
2023/12/26 07:38:13;;;;;;;10.63;1.75;;;9.60;99.90;;;;;;6339277;22;20327;-91
2023/12/26 07:40:58;;;;;;;15.25;2.22;;;9.60;99.90;;;;;;6340105;22;20315;-92
2023/12/26 07:43:57;;;;;;;14.00;2.15;;;9.70;99.90;;;;;;6338879;22;20404;-91
2023/12/26 07:49:28;;;;;;;13.90;2.47;;;9.80;99.90;;;;;;6339454;22;20022;-92
2023/12/26 07:51:56;;;;;;;12.38;1.73;;;9.70;99.90;;;;;;6341065;22;20018;-92
2023/12/26 07:54:28;;;;;;;7.45;1.80;;;9.20;99.90;;;;;;6346422;22;20003;-91
2023/12/26 07:56:55;;;;;;;7.32;1.50;;;9.60;99.90;;;;;;6342025;22;20408;-90
2023/12/26 07:59:37;;;;;;;;;;;;;;;;;;;;;
2023/12/26 08:02:03;;;;;;;13.75;2.75;;;9.70;99.90;;;;;;6356922;22;20117;-92
2023/12/26 08:04:29;;;;;;;10.48;1.88;;;9.60;99.90;;;;;;6372688;22;20003;-92
2023/12/26 08:07:01;;;;;;;5.85;2.03;;;9.60;99.90;;;;;;6371634;22;19999;-92
2023/12/26 08:09:26;;;;;;;10.98;1.48;;;9.70;99.90;;;;;;6396025;22;19987;-92
2023/12/26 08:12:29;;;;;;;9.23;1.67;;;9.60;99.90;;;;;;6385838;22;20398;-92
2023/12/26 08:15:03;;;;;;;20.90;2.55;;;9.60;99.90;;;;;;6372088;22;20085;-93
2023/12/26 08:20:51;;;;;;;13.48;2.25;;;9.10;99.90;;;;;;6331756;22;20434;-93
2023/12/26 08:26:54;;;;;;;8.32;1.90;;;9.00;99.90;;;;;;6298726;22;20027;-92
2023/12/26 08:38:03;;;;;;;12.75;2.30;;;9.50;99.90;;;;;;6340866;22;20040;-91
2023/12/26 08:40:47;;;;;;;10.13;2.25;;;9.40;99.90;;;;;;6344492;22;20005;-90
2023/12/26 08:46:39;;;;;;;16.42;2.22;;;9.20;99.90;;;;;;6341084;22;20009;-93
2023/12/26 08:49:04;;;;;;;13.93;2.13;;;9.50;99.90;;;;;;6341351;22;20005;-85
2023/12/26 08:51:31;;;;;;;10.90;2.13;;;9.50;99.90;;;;;;6337380;22;20034;-86
2023/12/26 08:53:57;;;;;;;14.00;2.13;;;9.50;99.90;;;;;;6337575;22;20323;-88
2023/12/26 08:56:24;;;;;;;13.60;2.60;;;9.50;99.90;;;;;;6342655;22;20026;-87
2023/12/26 08:58:53;;;;;;;21.85;3.33;;;9.50;99.90;;;;;;6338772;22;19999;-90
2023/12/26 09:01:19;;;;;;;18.42;2.55;;;9.50;99.90;;;;;;6340537;22;20548;-87
2023/12/26 09:03:48;;;;;;;20.05;3.63;;;9.50;99.90;;;;;;6338624;22;19999;-89
2023/12/26 09:06:17;;;;;;;13.55;2.83;;;9.50;99.90;;;;;;6337574;22;20336;-88
2023/12/26 09:08:43;;;;;;;14.23;2.70;;;9.50;99.90;;;;;;6337746;22;20409;-89
2023/12/26 09:11:12;;;;;;;13.65;2.85;;;9.50;99.90;;;;;;6337764;22;20003;-91
2023/12/26 09:13:55;;;;;;;18.42;2.35;;;9.40;99.90;;;;;;6339461;22;20006;-93
2023/12/26 09:16:25;;;;;;;16.70;3.25;;;9.40;99.90;;;;;;6347067;22;20025;-91
2023/12/26 09:18:53;;;;;;;23.13;3.20;;;9.40;99.90;;;;;;6343667;22;20003;-93
2023/12/26 09:21:22;;;;;;;11.27;2.33;;;9.40;99.90;;;;;;6344132;22;20362;-93
2023/12/26 09:23:58;;;;;;;13.63;2.70;;;9.40;99.90;;;;;;6341059;22;20311;-92
2023/12/26 09:26:56;;;;;;;11.15;2.53;;;9.50;99.90;;;;;;6324047;22;19991;-93
2023/12/26 09:29:22;;;;;;;16.88;2.80;;;9.50;99.90;;;;;;6355732;22;20052;-89
2023/12/26 09:31:55;;;;;;;14.43;2.58;;;9.50;99.90;;;;;;6356336;22;20002;-93
2023/12/26 09:34:28;;;;;;;14.95;2.55;;;9.50;99.90;;;;;;6343736;22;20056;-94
2023/12/26 09:36:56;;;;;;;13.30;2.97;;;9.50;99.90;;;;;;6342443;22;20019;-94
2023/12/26 09:39:21;;;;;;;16.17;2.72;;;9.60;99.90;;;;;;6341044;22;20029;-86
2023/12/26 09:41:54;;;;;;;11.93;2.25;;;9.60;99.90;;;;;;6337702;22;20002;-87
2023/12/26 09:44:24;;;;;;;16.02;2.70;;;9.60;99.90;;;;;;6339773;22;20044;-92
2023/12/26 09:46:52;;;;;;;26.60;4.15;;;9.60;99.90;;;;;;6342926;22;20022;-91
2023/12/26 09:49:22;;;;;;;17.70;3.20;;;9.70;99.90;;;;;;6342702;22;20026;-93
2023/12/26 09:51:58;;;;;;;16.38;2.63;;;9.70;99.90;;;;;;6340338;22;19999;-90
2023/12/26 09:54:36;;;;;;;14.35;2.78;;;9.70;99.90;;;;;;6338162;22;20011;-90
2023/12/26 09:57:23;;;;;;;12.80;3.03;;;9.70;99.90;;;;;;6342994;22;20010;-94
2023/12/26 10:00:02;;;;;;;14.95;2.63;;;9.40;99.90;;;;;;6344065;22;19998;-94
2023/12/26 10:02:36;;;;;;;15.15;2.80;;;9.20;99.90;;;;;;6343935;22;19998;-89
2023/12/26 10:05:07;;;;;;;11.98;3.45;;;9.80;99.90;;;;;;6338279;22;19999;-91
2023/12/26 10:08:08;;;;;;;10.20;2.30;;;9.80;99.90;;;;;;6344782;22;20209;-93
2023/12/26 10:10:34;;;;;;;14.48;2.85;;;9.70;99.90;;;;;;6343969;22;20007;-92
2023/12/26 10:13:04;;;;;;;14.32;2.72;;;9.80;99.90;;;;;;6348448;22;20369;-90
2023/12/26 10:15:41;;;;;;;18.33;3.13;;;9.80;99.90;;;;;;6347662;22;20011;-94
2023/12/26 10:18:11;;;;;;;16.30;2.95;;;9.80;99.90;;;;;;6348525;22;20021;-92
2023/12/26 10:20:37;;;;;;;26.30;7.03;;;9.80;99.90;;;;;;6345289;22;20355;-88
2023/12/26 10:23:09;;;;;;;10.65;2.08;;;9.00;99.90;;;;;;6347890;22;20011;-93
2023/12/26 10:25:36;;;;;;;13.27;2.28;;;9.90;99.90;;;;;;6347418;22;20430;-94
2023/12/26 10:28:09;;;;;;;14.30;2.58;;;9.80;99.90;;;;;;6348919;22;20435;-93
2023/12/26 10:30:41;;;;;;;13.15;1.85;;;9.80;99.90;;;;;;6343315;22;20033;-92
2023/12/26 10:33:25;;;;;;;8.02;2.03;;;9.90;99.90;;;;;;6339822;22;20043;-90
2023/12/26 10:36:15;;;;;;;15.57;2.45;;;9.80;99.90;;;;;;6340350;22;20038;-93
2023/12/26 10:38:59;;;;;;;16.88;2.55;;;10.30;99.90;;;;;;6308111;22;20007;-93
2023/12/26 10:42:14;;;;;;;10.93;1.83;;;9.90;99.90;;;;;;6309404;22;20007;-90
2023/12/26 10:45:05;;;;;;;22.40;3.13;;;9.20;99.90;;;;;;6308266;22;20005;-89
2023/12/26 10:47:32;;;;;;;14.68;2.40;;;9.90;99.90;;;;;;6322319;22;20000;-89
2023/12/26 10:50:08;;;;;;;16.00;2.58;;;10.00;99.90;;;;;;6318738;22;20063;-89
2023/12/26 10:53:16;;;;;;;6.78;2.30;;;10.00;99.90;;;;;;6320400;22;20140;-89
2023/12/26 10:55:49;;;;;;;17.48;3.22;;;10.00;99.90;;;;;;6261709;22;20103;-90
2023/12/26 10:58:31;;;;;;;15.32;3.28;;;10.00;99.90;;;;;;6307885;22;20019;-88
2023/12/26 13:53:23;;;;;;;9.13;1.90;;;9.70;99.90;;;;;;6402970;22;20008;-91
2023/12/26 13:56:30;;;;;;;6.30;2.13;;;9.70;99.90;;;;;;6402504;22;20083;-89
2023/12/26 13:59:34;;;;;;;11.38;2.58;;;9.70;99.90;;;;;;6403809;22;20070;-89
2023/12/26 14:02:42;;;;;;;7.53;1.70;;;9.60;99.90;;;;;;6404601;22;20058;-93
2023/12/26 14:05:51;;;;;;;9.43;1.95;;;9.60;99.90;;;;;;6404938;22;20010;-93
2023/12/26 14:08:54;;;;;;;15.05;2.33;;;9.70;99.90;;;;;;6420731;22;20016;-93
2023/12/26 14:12:01;;;;;;;15.52;2.22;;;9.70;99.90;;;;;;6409398;22;20146;-93
2023/12/26 14:15:13;;;;;;;11.40;1.90;;;9.70;99.90;;;;;;6403766;22;20002;-92
2023/12/26 14:18:18;;;;;;;10.32;2.20;;;9.70;99.90;;;;;;6419127;22;20019;-93
2023/12/26 14:21:32;;;;;;;6.28;1.55;;;9.60;99.90;;;;;;6413320;22;20002;-94
2023/12/26 14:24:37;;;;;;;10.18;1.92;;;9.60;99.90;;;;;;6407917;22;20066;-93
2023/12/26 14:30:25;;;;;;;6.05;1.33;;;9.60;99.90;;;;;;6411152;22;20012;-94
2023/12/26 14:32:51;;;;;;;11.30;2.40;;;9.60;99.90;;;;;;6405330;22;20017;-90
2023/12/26 14:35:27;;;;;;;5.18;1.90;;;9.90;99.90;;;;;;6405902;22;20010;-93
2023/12/26 14:37:52;;;;;;;6.80;2.42;;;9.80;99.90;;;;;;6407160;22;20340;-90
2023/12/26 14:40:19;;;;;;;8.15;2.40;;;10.00;99.90;;;;;;6404492;22;19998;-90
2023/12/26 14:42:50;;;;;;;10.40;2.60;;;9.60;99.90;;;;;;6403240;22;20002;-89
2023/12/26 14:45:21;;;;;;;10.40;1.95;;;10.20;99.90;;;;;;6401761;22;20012;-88
2023/12/26 14:47:48;;;;;;;6.38;1.42;;;9.60;99.90;;;;;;6402224;22;20718;-89
2023/12/26 14:50:15;;;;;;;13.27;1.88;;;9.80;99.90;;;;;;6402539;22;20355;-89
2023/12/26 14:52:40;;;;;;;9.20;2.60;;;9.60;99.90;;;;;;6406891;22;19982;-90
2023/12/26 14:55:25;;;;;;;6.47;2.08;;;9.60;99.90;;;;;;6420546;22;20227;-90
2023/12/26 14:57:58;;;;;;;8.13;2.10;;;9.60;99.90;;;;;;6404685;22;20076;-89
2023/12/26 15:00:23;;;;;;;12.85;2.03;;;9.60;99.90;;;;;;6402375;22;20002;-91
2023/12/26 15:02:57;;;;;;;12.23;2.53;;;9.90;99.90;;;;;;6403728;22;20407;-89
2023/12/26 15:05:24;;;;;;;8.10;1.77;;;9.60;99.90;;;;;;6403379;22;20013;-89
2023/12/26 15:07:51;;;;;;;7.43;1.58;;;9.70;99.90;;;;;;6402695;22;20002;-90
2023/12/26 15:10:18;;;;;;;7.72;1.92;;;9.70;99.90;;;;;;6402653;22;20002;-90
2023/12/26 15:12:45;;;;;;;12.60;1.98;;;9.70;99.90;;;;;;6402823;22;20060;-89
2023/12/26 15:15:12;;;;;;;8.43;1.80;;;9.70;99.90;;;;;;6402530;22;20013;-89
2023/12/26 15:17:39;;;;;;;9.25;2.22;;;9.70;99.90;;;;;;6405388;22;20023;-90
2023/12/26 15:20:05;;;;;;;11.40;1.88;;;9.70;99.90;;;;;;6420328;22;20017;-88
2023/12/26 15:22:31;;;;;;;7.28;1.65;;;9.70;99.90;;;;;;6423209;22;20059;-89
2023/12/26 15:24:58;;;;;;;14.77;2.13;;;9.70;99.90;;;;;;6412956;22;20025;-90
2023/12/26 15:27:23;;;;;;;13.32;1.98;;;9.70;99.90;;;;;;6403064;22;20024;-91
2023/12/26 15:29:51;;;;;;;7.05;2.25;;;9.60;99.90;;;;;;6403203;22;20002;-89
2023/12/26 15:32:21;;;;;;;11.05;2.42;;;9.60;99.90;;;;;;6402864;22;20018;-90
2023/12/26 15:34:54;;;;;;;15.10;2.47;;;9.60;99.90;;;;;;6403190;22;20010;-91
2023/12/26 15:37:23;;;;;;;11.73;1.65;;;9.60;99.90;;;;;;6403375;22;19998;-90
2023/12/26 15:39:50;;;;;;;10.45;2.63;;;9.60;99.90;;;;;;6402805;22;20037;-89
2023/12/26 15:42:17;;;;;;;6.47;1.73;;;9.60;99.90;;;;;;6403394;22;20146;-90
2023/12/26 15:44:47;;;;;;;7.85;1.88;;;9.50;99.90;;;;;;6403123;22;20068;-90
2023/12/26 15:47:18;;;;;;;9.60;3.07;;;9.60;99.90;;;;;;6403583;22;20324;-90
2023/12/26 15:49:44;;;;;;;9.30;2.55;;;9.70;99.90;;;;;;6403004;22;20064;-90
2023/12/26 15:52:11;;;;;;;8.55;1.95;;;9.60;99.90;;;;;;6403445;22;20002;-91
2023/12/26 15:54:51;;;;;;;9.45;2.20;;;9.50;99.90;;;;;;6404117;22;20010;-93
2023/12/26 15:57:23;;;;;;;14.80;2.60;;;9.50;99.90;;;;;;6410912;22;20025;-93
2023/12/26 15:59:58;;;;;;;14.13;2.45;;;9.50;99.90;;;;;;6400971;22;20002;-90
2023/12/26 16:02:44;;;;;;;8.60;1.70;;;9.40;99.90;;;;;;6401243;22;20005;-89
2023/12/26 16:05:10;;;;;;;11.23;2.38;;;9.50;99.90;;;;;;6401198;22;20006;-90
2023/12/26 16:07:55;;;;;;;15.90;3.92;;;9.50;99.90;;;;;;6375504;22;20010;-91
2023/12/26 16:10:43;;;;;;;9.13;1.70;;;9.50;99.90;;;;;;6398471;22;20089;-90
2023/12/26 16:13:23;;;;;;;6.45;1.77;;;9.40;99.90;;;;;;6407541;22;20106;-89
2023/12/26 16:16:18;;;;;;;10.25;2.58;;;9.40;99.90;;;;;;6419580;22;20406;-91
2023/12/26 16:18:44;;;;;;;5.60;1.02;;;8.90;99.90;;;;;;6406491;22;20001;-90
2023/12/26 16:21:26;;;;;;;9.90;1.77;;;10.00;99.90;;;;;;6401970;22;20070;-91
2023/12/26 16:23:53;;;;;;;18.88;2.38;;;9.40;99.90;;;;;;6401908;22;20002;-91
2023/12/26 16:26:22;;;;;;;7.13;1.45;;;9.90;99.90;;;;;;6401269;22;19998;-94
2023/12/26 16:29:18;;;;;;;4.32;1.40;;;9.40;99.90;;;;;;6401562;22;20002;-92
2023/12/26 16:32:07;;;;;;;7.50;1.40;;;9.40;99.90;;;;;;6402032;22;20002;-91
2023/12/26 16:34:52;;;;;;;10.65;1.98;;;9.40;99.90;;;;;;6402727;22;20010;-92
2023/12/26 16:37:49;;;;;;;8.55;1.75;;;9.30;99.90;;;;;;6403316;22;20008;-91
2023/12/26 16:40:20;;;;;;;5.90;1.67;;;9.30;99.90;;;;;;6403065;22;19998;-92
2023/12/26 16:42:48;;;;;;;;;;;9.30;99.90;;;;;;6404071;22;20009;-93
2023/12/26 16:45:18;;;;;;;8.88;2.10;;;9.30;99.90;;;;;;6403328;22;19904;-93
2023/12/26 16:48:04;;;;;;;10.02;3.15;;;9.30;99.90;;;;;;6404576;22;20322;-93
2023/12/26 16:50:48;;;;;;;6.43;2.17;;;9.30;99.90;;;;;;6403513;22;20016;-91
2023/12/26 16:53:14;;;;;;;6.65;2.50;;;9.30;99.90;;;;;;6403128;22;20002;-91
2023/12/26 16:55:53;;;;;;;9.65;3.33;;;9.20;99.90;;;;;;6400712;22;20014;-91
2023/12/26 16:58:20;;;;;;;14.68;5.72;;;8.50;99.90;;;;;;6401073;22;20002;-92
2023/12/26 17:00:47;;;;;;;13.73;3.80;;;9.20;99.90;;;;;;6400988;22;20430;-91
2023/12/26 17:03:28;;;;;;;10.65;2.28;;;9.20;99.90;;;;;;6401100;22;20001;-90
2023/12/26 17:06:07;;;;;;;7.68;2.38;;;9.90;99.90;;;;;;6401656;22;20077;-92
2023/12/26 17:08:33;;;;;;;10.07;1.92;;;9.20;99.90;;;;;;6404073;22;20005;-92
2023/12/26 17:11:17;;;;;;;10.35;2.50;;;9.10;99.90;;;;;;6403698;22;19998;-92
2023/12/26 17:13:53;;;;;;;9.10;1.65;;;9.10;99.90;;;;;;6402259;22;20286;-91
2023/12/26 17:16:20;;;;;;;7.47;1.45;;;9.10;99.90;;;;;;6397948;22;20020;-87